Missoula International Airport Missoula US
ICAO: KMSO
IATA: MSO
Category: Medium
Scheduled Services: Yes

Elevation: 3206 ft
TransAlt. 18000 ft.

Airport Communications:
SPOKANE APP/DEP:124.9
ATIS:126.65
CTAF:118.4
GND:121.9
GREAT FALLS RDO:122.45
TWR:118.4
UNICOM:122.95

KMSO Zoom In..

If you have problems with the map follow the link
https://www.worldairports.se/pages/airport.php?
ICAO=KMSO

Runways:

(A) RW 07 length 4612 ft width 75 ft
---- / hdg 72

(B) RW 11 length 9501 ft width 150 ft
ILS 109.30 / hdg 113

(C) RW 25 length 4612 ft width 75 ft
---- / hdg 252

(D) RW 29 length 9501 ft width 150 ft
---- / hdg 293

Location; KMSO
Day. 25 / Time. 08.53 Zulu
* Altimeter: 30.03
* Temperature: -02° c. -28.4°f.
* Wind from: 010° Speed 03 kn.
Dewpoint: -02° c.
Visibility: 1/4 Statute Miles.
Conditions: Freezing fog.

KMSO 250853Z AUTO 01003KT 1/4SM FZFG M02/M02 A3003 RMK AO2 SLP195 I1000 I3000 T10171017 53001 $


Wind From 010°
Speed 03 kn.

 
 
jpsmedia worldairports.se 2020   terms of use